sensor_id;sensor_type;location;lat;lon;timestamp;pressure;altitude;pressure_sealevel;temperature;humidity
71384;BME280;67558;52.166;5.004;2023-02-18T00:01:39;102282.31;;;12.45;71.19
71384;BME280;67558;52.166;5.004;2023-02-18T00:04:04;102279.97;;;12.48;71.32
71384;BME280;67558;52.166;5.004;2023-02-18T00:06:34;102277.06;;;12.50;71.33
71384;BME280;67558;52.166;5.004;2023-02-18T00:09:00;102284.53;;;12.48;71.43
71384;BME280;67558;52.166;5.004;2023-02-18T00:11:27;102283.72;;;12.47;71.16
71384;BME280;67558;52.166;5.004;2023-02-18T00:13:55;102269.97;;;12.44;71.07
71384;BME280;67558;52.166;5.004;2023-02-18T00:16:21;102277.53;;;12.47;71.08
71384;BME280;67558;52.166;5.004;2023-02-18T00:18:48;102267.06;;;12.45;71.22
71384;BME280;67558;52.166;5.004;2023-02-18T00:21:13;102262.41;;;12.41;71.05
71384;BME280;67558;52.166;5.004;2023-02-18T00:23:39;102269.97;;;12.44;71.20
71384;BME280;67558;52.166;5.004;2023-02-18T00:26:16;102273.13;;;12.41;71.13
71384;BME280;67558;52.166;5.004;2023-02-18T00:28:41;102265.34;;;12.39;71.33
71384;BME280;67558;52.166;5.004;2023-02-18T00:31:21;102254.25;;;12.36;71.46
71384;BME280;67558;52.166;5.004;2023-02-18T00:33:46;102262.88;;;12.38;71.08
71384;BME280;67558;52.166;5.004;2023-02-18T00:36:14;102261.25;;;12.37;71.10
71384;BME280;67558;52.166;5.004;2023-02-18T00:38:51;102263.84;;;12.32;71.50
71384;BME280;67558;52.166;5.004;2023-02-18T00:41:18;102251.50;;;12.31;71.28
71384;BME280;67558;52.166;5.004;2023-02-18T00:43:43;102243.84;;;12.22;71.49
71384;BME280;67558;52.166;5.004;2023-02-18T00:46:09;102254.66;;;12.27;71.34
71384;BME280;67558;52.166;5.004;2023-02-18T00:48:35;102251.41;;;12.25;71.44
71384;BME280;67558;52.166;5.004;2023-02-18T00:51:01;102249.53;;;12.26;71.40
71384;BME280;67558;52.166;5.004;2023-02-18T00:53:28;102246.53;;;12.22;71.43
71384;BME280;67558;52.166;5.004;2023-02-18T00:55:53;102254.00;;;12.20;71.36
71384;BME280;67558;52.166;5.004;2023-02-18T00:58:19;102251.31;;;12.20;71.23
71384;BME280;67558;52.166;5.004;2023-02-18T01:00:45;102245.38;;;12.18;71.39
71384;BME280;67558;52.166;5.004;2023-02-18T01:03:11;102236.75;;;12.16;71.33
71384;BME280;67558;52.166;5.004;2023-02-18T01:05:37;102235.09;;;12.15;71.72
71384;BME280;67558;52.166;5.004;2023-02-18T01:08:03;102216.63;;;12.02;71.57
71384;BME280;67558;52.166;5.004;2023-02-18T01:10:29;102240.97;;;12.12;71.83
71384;BME280;67558;52.166;5.004;2023-02-18T01:12:54;102244.72;;;12.11;71.99
71384;BME280;67558;52.166;5.004;2023-02-18T01:15:20;102251.13;;;12.10;71.88
71384;BME280;67558;52.166;5.004;2023-02-18T01:17:46;102249.50;;;12.09;71.79
71384;BME280;67558;52.166;5.004;2023-02-18T01:20:12;102250.88;;;12.12;71.89
71384;BME280;67558;52.166;5.004;2023-02-18T01:22:38;102242.28;;;12.09;71.85
71384;BME280;67558;52.166;5.004;2023-02-18T01:25:04;102235.84;;;12.11;71.84
71384;BME280;67558;52.166;5.004;2023-02-18T01:27:30;102221.28;;;12.06;71.83
71384;BME280;67558;52.166;5.004;2023-02-18T01:29:55;102216.50;;;12.08;72.02
71384;BME280;67558;52.166;5.004;2023-02-18T01:32:21;102217.78;;;12.06;71.99
71384;BME280;67558;52.166;5.004;2023-02-18T01:34:46;102220.81;;;12.09;71.98
71384;BME280;67558;52.166;5.004;2023-02-18T01:37:12;102214.88;;;12.07;71.86
71384;BME280;67558;52.166;5.004;2023-02-18T01:39:37;102203.00;;;12.03;72.13
71384;BME280;67558;52.166;5.004;2023-02-18T01:42:03;102218.38;;;12.08;72.07
71384;BME280;67558;52.166;5.004;2023-02-18T01:44:31;102216.50;;;12.08;71.93
71384;BME280;67558;52.166;5.004;2023-02-18T01:46:57;102222.44;;;12.11;72.05
71384;BME280;67558;52.166;5.004;2023-02-18T01:49:32;102226.75;;;12.12;71.84
71384;BME280;67558;52.166;5.004;2023-02-18T01:52:08;102215.44;;;12.09;72.01
71384;BME280;67558;52.166;5.004;2023-02-18T01:54:38;102199.25;;;12.04;71.96
71384;BME280;67558;52.166;5.004;2023-02-18T01:57:14;102204.16;;;12.07;72.01
71384;BME280;67558;52.166;5.004;2023-02-18T01:59:45;102198.44;;;12.04;72.17
71384;BME280;67558;52.166;5.004;2023-02-18T02:02:16;102195.28;;;12.07;72.21
71384;BME280;67558;52.166;5.004;2023-02-18T02:04:42;102184.22;;;12.03;72.44
71384;BME280;67558;52.166;5.004;2023-02-18T02:07:08;102179.09;;;12.02;72.26
71384;BME280;67558;52.166;5.004;2023-02-18T02:09:34;102175.09;;;12.04;72.21
71384;BME280;67558;52.166;5.004;2023-02-18T02:12:24;102171.03;;;12.02;72.58
71384;BME280;67558;52.166;5.004;2023-02-18T02:20:22;102147.19;;;12.00;72.98
71384;BME280;67558;52.166;5.004;2023-02-18T02:28:57;102125.16;;;11.98;72.93
71384;BME280;67558;52.166;5.004;2023-02-18T02:41:42;102084.09;;;11.98;72.77
71384;BME280;67558;52.166;5.004;2023-02-18T02:44:20;102077.69;;;11.99;72.83
71384;BME280;67558;52.166;5.004;2023-02-18T02:46:49;102074.75;;;12.00;72.60
71384;BME280;67558;52.166;5.004;2023-02-18T02:52:06;102050.75;;;11.94;72.88
71384;BME280;67558;52.166;5.004;2023-02-18T02:54:35;102051.44;;;12.01;72.83
71384;BME280;67558;52.166;5.004;2023-02-18T02:57:06;102048.25;;;12.04;72.62
71384;BME280;67558;52.166;5.004;2023-02-18T02:59:34;102047.22;;;12.05;72.88
71384;BME280;67558;52.166;5.004;2023-02-18T03:16:33;102040.78;;;12.06;72.93
71384;BME280;67558;52.166;5.004;2023-02-18T03:22:07;102030.38;;;12.09;73.58
71384;BME280;67558;52.166;5.004;2023-02-18T03:24:40;102016.06;;;12.04;73.40
71384;BME280;67558;52.166;5.004;2023-02-18T03:29:55;102009.09;;;12.03;73.53
71384;BME280;67558;52.166;5.004;2023-02-18T03:32:23;102004.31;;;12.05;73.20
71384;BME280;67558;52.166;5.004;2023-02-18T03:34:57;101998.94;;;12.05;73.32
71384;BME280;67558;52.166;5.004;2023-02-18T03:37:25;101992.75;;;12.04;73.26
71384;BME280;67558;52.166;5.004;2023-02-18T03:39:54;101992.50;;;12.06;73.11
71384;BME280;67558;52.166;5.004;2023-02-18T03:42:25;101977.47;;;12.05;73.17
71384;BME280;67558;52.166;5.004;2023-02-18T03:44:51;101971.56;;;12.03;73.38
71384;BME280;67558;52.166;5.004;2023-02-18T03:47:17;101967.22;;;12.02;73.36
71384;BME280;67558;52.166;5.004;2023-02-18T03:49:42;101972.13;;;12.05;73.23
71384;BME280;67558;52.166;5.004;2023-02-18T03:52:07;101961.63;;;12.03;73.40
71384;BME280;67558;52.166;5.004;2023-02-18T03:54:33;101960.03;;;12.02;73.36
71384;BME280;67558;52.166;5.004;2023-02-18T03:56:58;101947.91;;;12.00;73.37
71384;BME280;67558;52.166;5.004;2023-02-18T03:59:23;101955.47;;;12.03;73.61
71384;BME280;67558;52.166;5.004;2023-02-18T04:01:49;101947.31;;;11.98;73.50
71384;BME280;67558;52.166;5.004;2023-02-18T04:04:14;101951.16;;;12.02;73.58
71384;BME280;67558;52.166;5.004;2023-02-18T04:06:39;101946.84;;;12.01;73.69
71384;BME280;67558;52.166;5.004;2023-02-18T04:09:05;101948.72;;;12.00;73.81
71384;BME280;67558;52.166;5.004;2023-02-18T04:11:37;101949.28;;;12.02;73.75
71384;BME280;67558;52.166;5.004;2023-02-18T04:14:03;101951.72;;;12.04;73.80
71384;BME280;67558;52.166;5.004;2023-02-18T04:16:28;101937.25;;;12.05;73.77
71384;BME280;67558;52.166;5.004;2023-02-18T04:18:54;101944.75;;;12.03;73.79
71384;BME280;67558;52.166;5.004;2023-02-18T04:21:19;101940.97;;;12.04;74.00
71384;BME280;67558;52.166;5.004;2023-02-18T04:23:45;101934.31;;;12.06;74.04
71384;BME280;67558;52.166;5.004;2023-02-18T04:26:10;101930.00;;;12.05;73.84
71384;BME280;67558;52.166;5.004;2023-02-18T04:28:35;101930.81;;;12.06;73.73
71384;BME280;67558;52.166;5.004;2023-02-18T04:31:01;101934.00;;;12.03;74.28
71384;BME280;67558;52.166;5.004;2023-02-18T04:33:26;101923.84;;;12.05;74.07
71384;BME280;67558;52.166;5.004;2023-02-18T04:35:51;101929.78;;;12.07;74.20
71384;BME280;67558;52.166;5.004;2023-02-18T04:38:17;101929.78;;;12.07;73.95
71384;BME280;67558;52.166;5.004;2023-02-18T04:40:42;101914.81;;;12.11;74.12
71384;BME280;67558;52.166;5.004;2023-02-18T04:43:07;101908.81;;;12.04;74.35
71384;BME280;67558;52.166;5.004;2023-02-18T04:45:33;101899.44;;;12.06;74.27
71384;BME280;67558;52.166;5.004;2023-02-18T04:47:58;101898.06;;;12.04;74.45
71384;BME280;67558;52.166;5.004;2023-02-18T04:50:23;101892.72;;;12.04;74.41
71384;BME280;67558;52.166;5.004;2023-02-18T04:52:49;101873.38;;;12.02;74.50
71384;BME280;67558;52.166;5.004;2023-02-18T04:55:14;101879.56;;;12.02;74.54
71384;BME280;67558;52.166;5.004;2023-02-18T04:57:40;101871.69;;;11.96;74.69
71384;BME280;67558;52.166;5.004;2023-02-18T05:00:07;101881.69;;;12.00;74.55
71384;BME280;67558;52.166;5.004;2023-02-18T05:02:34;101881.69;;;12.00;74.76
71384;BME280;67558;52.166;5.004;2023-02-18T05:04:59;101893.22;;;12.01;74.81
71384;BME280;67558;52.166;5.004;2023-02-18T05:07:25;101900.47;;;12.00;74.92
71384;BME280;67558;52.166;5.004;2023-02-18T05:09:50;101888.84;;;11.95;74.73
71384;BME280;67558;52.166;5.004;2023-02-18T05:12:16;101885.09;;;11.96;75.35
71384;BME280;67558;52.166;5.004;2023-02-18T05:14:41;101891.59;;;12.00;75.16
71384;BME280;67558;52.166;5.004;2023-02-18T05:17:06;101882.50;;;12.01;75.28
71384;BME280;67558;52.166;5.004;2023-02-18T05:19:32;101864.91;;;11.88;75.28
71384;BME280;67558;52.166;5.004;2023-02-18T05:21:57;101888.97;;;12.05;75.13
71384;BME280;67558;52.166;5.004;2023-02-18T05:24:23;101875.56;;;12.05;75.38
71384;BME280;67558;52.166;5.004;2023-02-18T05:26:48;101873.47;;;12.07;75.39
71384;BME280;67558;52.166;5.004;2023-02-18T05:29:13;101873.69;;;12.05;75.34
71384;BME280;67558;52.166;5.004;2023-02-18T05:31:39;101867.81;;;12.08;75.32
71384;BME280;67558;52.166;5.004;2023-02-18T05:34:04;101871.56;;;12.07;75.54
71384;BME280;67558;52.166;5.004;2023-02-18T05:36:30;101865.41;;;12.07;75.26
71384;BME280;67558;52.166;5.004;2023-02-18T05:38:55;101855.25;;;12.09;75.38
71384;BME280;67558;52.166;5.004;2023-02-18T05:41:21;101861.75;;;12.13;75.28
71384;BME280;67558;52.166;5.004;2023-02-18T05:43:46;101853.13;;;12.11;75.42
71384;BME280;67558;52.166;5.004;2023-02-18T05:46:30;101860.34;;;12.11;75.29
71384;BME280;67558;52.166;5.004;2023-02-18T05:48:55;101862.78;;;12.12;75.46
71384;BME280;67558;52.166;5.004;2023-02-18T05:51:21;101846.38;;;12.08;75.64
71384;BME280;67558;52.166;5.004;2023-02-18T05:53:46;101850.50;;;12.16;75.19
71384;BME280;67558;52.166;5.004;2023-02-18T05:56:11;101826.03;;;12.13;75.35
71384;BME280;67558;52.166;5.004;2023-02-18T05:58:37;101827.66;;;12.14;75.29
71384;BME280;67558;52.166;5.004;2023-02-18T06:01:02;101829.59;;;12.18;75.33
71384;BME280;67558;52.166;5.004;2023-02-18T06:03:28;101844.94;;;12.23;75.11
71384;BME280;67558;52.166;5.004;2023-02-18T06:05:53;101843.31;;;12.22;75.14
71384;BME280;67558;52.166;5.004;2023-02-18T06:08:18;101836.56;;;12.19;75.15
71384;BME280;67558;52.166;5.004;2023-02-18T06:10:47;101842.00;;;12.24;75.01
71384;BME280;67558;52.166;5.004;2023-02-18T06:13:12;101828.59;;;12.24;74.64
71384;BME280;67558;52.166;5.004;2023-02-18T06:15:38;101838.81;;;12.27;74.92
71384;BME280;67558;52.166;5.004;2023-02-18T06:18:05;101838.00;;;12.27;74.90
71384;BME280;67558;52.166;5.004;2023-02-18T06:20:31;101842.88;;;12.30;74.73
71384;BME280;67558;52.166;5.004;2023-02-18T06:22:56;101835.66;;;12.31;74.63
71384;BME280;67558;52.166;5.004;2023-02-18T06:25:22;101845.31;;;12.32;74.75
71384;BME280;67558;52.166;5.004;2023-02-18T06:27:47;101841.00;;;12.31;74.61
71384;BME280;67558;52.166;5.004;2023-02-18T06:30:12;101838.88;;;12.33;74.44
71384;BME280;67558;52.166;5.004;2023-02-18T06:32:38;101832.41;;;12.28;74.54
71384;BME280;67558;52.166;5.004;2023-02-18T06:35:03;101846.38;;;12.31;74.51
71384;BME280;67558;52.166;5.004;2023-02-18T06:37:29;101835.09;;;12.28;74.78
71384;BME280;67558;52.166;5.004;2023-02-18T06:39:54;101841.75;;;12.26;74.52
71384;BME280;67558;52.166;5.004;2023-02-18T06:42:20;101840.38;;;12.23;74.44
71384;BME280;67558;52.166;5.004;2023-02-18T06:44:45;101834.44;;;12.21;74.66
71384;BME280;67558;52.166;5.004;2023-02-18T06:47:10;101843.06;;;12.23;74.49
71384;BME280;67558;52.166;5.004;2023-02-18T06:49:39;101847.09;;;12.26;74.64
71384;BME280;67558;52.166;5.004;2023-02-18T06:52:04;101846.81;;;12.22;74.54
71384;BME280;67558;52.166;5.004;2023-02-18T06:54:30;101861.59;;;12.25;74.39
71384;BME280;67558;52.166;5.004;2023-02-18T06:56:57;101852.22;;;12.27;74.40
71384;BME280;67558;52.166;5.004;2023-02-18T06:59:22;101844.63;;;12.19;74.49
71384;BME280;67558;52.166;5.004;2023-02-18T07:01:48;101831.75;;;12.21;74.25
71384;BME280;67558;52.166;5.004;2023-02-18T07:04:13;101850.53;;;12.21;74.49
71384;BME280;67558;52.166;5.004;2023-02-18T07:06:38;101844.38;;;12.21;74.31
71384;BME280;67558;52.166;5.004;2023-02-18T07:09:04;101845.38;;;12.15;74.46
71384;BME280;67558;52.166;5.004;2023-02-18T07:11:30;101856.38;;;12.13;74.49
71384;BME280;67558;52.166;5.004;2023-02-18T07:13:56;101851.06;;;12.18;74.50
71384;BME280;67558;52.166;5.004;2023-02-18T07:16:21;101844.06;;;12.17;74.45
71384;BME280;67558;52.166;5.004;2023-02-18T07:18:46;101846.50;;;12.19;74.23
71384;BME280;67558;52.166;5.004;2023-02-18T07:21:12;101845.44;;;12.20;74.37
71384;BME280;67558;52.166;5.004;2023-02-18T07:23:37;101838.22;;;12.20;74.14
71384;BME280;67558;52.166;5.004;2023-02-18T07:26:08;101831.75;;;12.21;74.12
71384;BME280;67558;52.166;5.004;2023-02-18T07:28:34;101839.06;;;12.26;74.01
71384;BME280;67558;52.166;5.004;2023-02-18T07:31:00;101828.84;;;12.23;73.68
71384;BME280;67558;52.166;5.004;2023-02-18T07:33:25;101837.22;;;12.26;73.53
71384;BME280;67558;52.166;5.004;2023-02-18T07:35:54;101826.47;;;12.26;73.40
71384;BME280;67558;52.166;5.004;2023-02-18T07:38:21;101834.56;;;12.32;73.14
71384;BME280;67558;52.166;5.004;2023-02-18T07:40:47;101823.78;;;12.26;72.97
71384;BME280;67558;52.166;5.004;2023-02-18T07:43:13;101829.72;;;12.28;72.76
71384;BME280;67558;52.166;5.004;2023-02-18T07:45:38;101831.31;;;12.29;72.73
71384;BME280;67558;52.166;5.004;2023-02-18T07:48:04;101832.13;;;12.30;72.46
71384;BME280;67558;52.166;5.004;2023-02-18T07:50:29;101833.75;;;12.31;72.17
71384;BME280;67558;52.166;5.004;2023-02-18T07:52:59;101834.56;;;12.32;71.97
71384;BME280;67558;52.166;5.004;2023-02-18T07:55:25;101830.00;;;12.32;71.74
71384;BME280;67558;52.166;5.004;2023-02-18T07:58:10;101843.94;;;12.29;71.34
71384;BME280;67558;52.166;5.004;2023-02-18T08:00:36;101841.25;;;12.29;71.07
71384;BME280;67558;52.166;5.004;2023-02-18T08:03:01;101844.69;;;12.24;70.90
71384;BME280;67558;52.166;5.004;2023-02-18T08:05:27;101853.78;;;12.23;70.88
71384;BME280;67558;52.166;5.004;2023-02-18T08:07:52;101852.19;;;12.22;71.06
71384;BME280;67558;52.166;5.004;2023-02-18T08:10:18;101852.19;;;12.22;70.85
71384;BME280;67558;52.166;5.004;2023-02-18T08:12:43;101862.59;;;12.19;70.79
71384;BME280;67558;52.166;5.004;2023-02-18T08:15:08;101860.97;;;12.18;70.90
71384;BME280;67558;52.166;5.004;2023-02-18T08:17:34;101851.06;;;12.18;70.74
71384;BME280;67558;52.166;5.004;2023-02-18T08:19:59;101850.72;;;12.15;70.79
71384;BME280;67558;52.166;5.004;2023-02-18T08:22:24;101858.53;;;12.16;70.68
71384;BME280;67558;52.166;5.004;2023-02-18T08:24:50;101854.72;;;12.12;70.78
71384;BME280;67558;52.166;5.004;2023-02-18T08:27:17;101861.75;;;12.13;70.63
71384;BME280;67558;52.166;5.004;2023-02-18T08:29:43;101858.72;;;12.09;70.64
71384;BME280;67558;52.166;5.004;2023-02-18T08:32:08;101865.47;;;12.12;70.42
71384;BME280;67558;52.166;5.004;2023-02-18T08:34:33;101865.69;;;12.11;70.46
71384;BME280;67558;52.166;5.004;2023-02-18T08:37:01;101858.41;;;12.06;70.59
71384;BME280;67558;52.166;5.004;2023-02-18T08:39:26;101853.56;;;12.03;70.42
71384;BME280;67558;52.166;5.004;2023-02-18T08:41:51;101860.03;;;12.07;70.16
71384;BME280;67558;52.166;5.004;2023-02-18T08:44:17;101846.56;;;12.02;70.07
71384;BME280;67558;52.166;5.004;2023-02-18T08:46:42;101849.88;;;12.09;70.11
71384;BME280;67558;52.166;5.004;2023-02-18T08:49:07;101853.03;;;12.06;69.83
71384;BME280;67558;52.166;5.004;2023-02-18T08:51:33;101858.41;;;12.06;69.89
71384;BME280;67558;52.166;5.004;2023-02-18T08:53:59;101860.84;;;12.07;69.78
71384;BME280;67558;52.166;5.004;2023-02-18T08:56:24;101870.25;;;12.10;69.79
71384;BME280;67558;52.166;5.004;2023-02-18T08:58:49;101873.50;;;12.12;69.89
71384;BME280;67558;52.166;5.004;2023-02-18T09:01:15;101870.59;;;12.14;69.53
71384;BME280;67558;52.166;5.004;2023-02-18T09:03:40;101864.47;;;12.18;69.32
71384;BME280;67558;52.166;5.004;2023-02-18T09:06:06;101854.78;;;12.17;69.31
71384;BME280;67558;52.166;5.004;2023-02-18T09:08:32;101883.25;;;12.18;69.52
71384;BME280;67558;52.166;5.004;2023-02-18T09:11:00;101876.81;;;12.19;69.29
71384;BME280;67558;52.166;5.004;2023-02-18T09:13:26;101887.81;;;12.18;69.36
71384;BME280;67558;52.166;5.004;2023-02-18T09:16:11;101870.41;;;12.20;69.27
71384;BME280;67558;52.166;5.004;2023-02-18T09:18:37;101877.63;;;12.20;69.47
71384;BME280;67558;52.166;5.004;2023-02-18T09:21:05;101855.16;;;12.04;69.25
71384;BME280;67558;52.166;5.004;2023-02-18T09:23:32;101888.41;;;12.25;68.83
71384;BME280;67558;52.166;5.004;2023-02-18T09:25:58;101889.53;;;12.29;69.03
71384;BME280;67558;52.166;5.004;2023-02-18T09:28:23;101886.63;;;12.31;68.59
71384;BME280;67558;52.166;5.004;2023-02-18T09:30:49;101872.50;;;12.40;68.83
71384;BME280;67558;52.166;5.004;2023-02-18T09:33:15;101869.81;;;12.40;68.64
71384;BME280;67558;52.166;5.004;2023-02-18T09:35:42;101869.31;;;12.43;68.45
71384;BME280;67558;52.166;5.004;2023-02-18T09:38:14;101874.69;;;12.43;68.59
71384;BME280;67558;52.166;5.004;2023-02-18T09:40:46;101897.53;;;12.46;68.00
71384;BME280;67558;52.166;5.004;2023-02-18T09:43:31;101898.09;;;12.48;67.85
71384;BME280;67558;52.166;5.004;2023-02-18T09:45:59;101890.09;;;12.53;67.77
71384;BME280;67558;52.166;5.004;2023-02-18T09:48:28;101883.91;;;12.53;67.99
71384;BME280;67558;52.166;5.004;2023-02-18T09:50:55;101898.44;;;12.57;67.88
71384;BME280;67558;52.166;5.004;2023-02-18T09:53:22;101908.91;;;12.58;67.78
71384;BME280;67558;52.166;5.004;2023-02-18T09:55:48;101901.94;;;12.57;67.72
71384;BME280;67558;52.166;5.004;2023-02-18T09:58:18;101901.41;;;12.60;67.96
71384;BME280;67558;52.166;5.004;2023-02-18T10:00:48;101900.94;;;12.63;67.41
71384;BME280;67558;52.166;5.004;2023-02-18T10:03:20;101899.84;;;12.64;67.77
71384;BME280;67558;52.166;5.004;2023-02-18T10:06:15;101907.22;;;12.74;67.51
71384;BME280;67558;52.166;5.004;2023-02-18T10:08:46;101904.84;;;12.78;67.23
71384;BME280;67558;52.166;5.004;2023-02-18T10:11:15;101904.38;;;12.86;67.14
71384;BME280;67558;52.166;5.004;2023-02-18T10:13:41;101904.91;;;12.83;67.22
71384;BME280;67558;52.166;5.004;2023-02-18T10:16:08;101914.31;;;12.85;67.00
71384;BME280;67558;52.166;5.004;2023-02-18T10:18:46;101900.84;;;12.80;67.05
71384;BME280;67558;52.166;5.004;2023-02-18T10:21:32;101916.31;;;12.73;67.43
71384;BME280;67558;52.166;5.004;2023-02-18T10:24:13;101917.19;;;12.79;67.43
71384;BME280;67558;52.166;5.004;2023-02-18T10:26:43;101926.63;;;12.81;67.41
71384;BME280;67558;52.166;5.004;2023-02-18T10:29:19;101917.88;;;12.91;67.30
71384;BME280;67558;52.166;5.004;2023-02-18T10:31:53;101931.84;;;12.93;67.38
71384;BME280;67558;52.166;5.004;2023-02-18T10:45:16;101934.25;;;13.22;66.73
71384;BME280;67558;52.166;5.004;2023-02-18T10:50:34;101923.50;;;13.22;66.76
71384;BME280;67558;52.166;5.004;2023-02-18T10:53:09;101934.63;;;13.30;66.35
71384;BME280;67558;52.166;5.004;2023-02-18T10:55:41;101932.19;;;13.29;66.40
71384;BME280;67558;52.166;5.004;2023-02-18T10:58:34;101927.69;;;13.35;66.52
71384;BME280;67558;52.166;5.004;2023-02-18T11:01:03;101912.44;;;13.40;66.36
71384;BME280;67558;52.166;5.004;2023-02-18T11:03:45;101924.81;;;13.46;66.20
71384;BME280;67558;52.166;5.004;2023-02-18T11:08:55;101928.38;;;13.57;66.03
71384;BME280;67558;52.166;5.004;2023-02-18T11:11:30;101926.31;;;13.64;66.13
71384;BME280;67558;52.166;5.004;2023-02-18T11:13:59;101933.06;;;13.72;66.07
71384;BME280;67558;52.166;5.004;2023-02-18T11:16:44;101918.25;;;13.69;66.11
71384;BME280;67558;52.166;5.004;2023-02-18T11:19:35;101936.06;;;13.81;66.02
71384;BME280;67558;52.166;5.004;2023-02-18T11:22:20;101939.63;;;13.86;66.09
71384;BME280;67558;52.166;5.004;2023-02-18T11:24:48;101939.63;;;13.86;65.99
71384;BME280;67558;52.166;5.004;2023-02-18T11:27:30;101939.91;;;13.90;66.12
71384;BME280;67558;52.166;5.004;2023-02-18T11:30:03;101935.88;;;13.92;66.19
71384;BME280;67558;52.166;5.004;2023-02-18T11:32:29;101931.06;;;13.95;66.33
71384;BME280;67558;52.166;5.004;2023-02-18T11:34:58;101939.44;;;13.98;66.01
71384;BME280;67558;52.166;5.004;2023-02-18T11:37:24;101933.50;;;14.01;65.97
71384;BME280;67558;52.166;5.004;2023-02-18T11:39:52;101936.47;;;14.00;66.14
71384;BME280;67558;52.166;5.004;2023-02-18T11:42:21;101927.81;;;13.92;65.92
71384;BME280;67558;52.166;5.004;2023-02-18T11:44:54;101929.19;;;13.95;65.54
71384;BME280;67558;52.166;5.004;2023-02-18T11:47:29;101937.78;;;13.92;65.40
71384;BME280;67558;52.166;5.004;2023-02-18T11:52:36;101926.75;;;13.93;65.37
71384;BME280;67558;52.166;5.004;2023-02-18T11:55:15;101933.03;;;14.09;65.34
71384;BME280;67558;52.166;5.004;2023-02-18T11:57:46;101930.66;;;14.18;65.41
71384;BME280;67558;52.166;5.004;2023-02-18T12:02:46;101926.13;;;14.29;64.83
71384;BME280;67558;52.166;5.004;2023-02-18T12:05:17;101929.13;;;14.38;64.77
71384;BME280;67558;52.166;5.004;2023-02-18T12:07:46;101928.03;;;14.39;64.77
71384;BME280;67558;52.166;5.004;2023-02-18T12:10:20;101936.94;;;14.39;64.54
71384;BME280;67558;52.166;5.004;2023-02-18T12:12:58;101930.22;;;14.42;64.69
71384;BME280;67558;52.166;5.004;2023-02-18T12:15:52;101925.09;;;14.40;64.62
71384;BME280;67558;52.166;5.004;2023-02-18T12:26:48;101921.59;;;14.40;64.64
71384;BME280;67558;52.166;5.004;2023-02-18T12:32:13;101928.38;;;14.52;64.41
71384;BME280;67558;52.166;5.004;2023-02-18T12:35:15;101924.91;;;14.62;64.35
71384;BME280;67558;52.166;5.004;2023-02-18T12:40:43;101925.75;;;14.68;63.88
71384;BME280;67558;52.166;5.004;2023-02-18T12:43:23;101923.84;;;14.68;63.62
71384;BME280;67558;52.166;5.004;2023-02-18T13:05:11;101930.88;;;14.80;63.21
71384;BME280;67558;52.166;5.004;2023-02-18T13:13:25;101937.38;;;14.89;63.93
71384;BME280;67558;52.166;5.004;2023-02-18T13:16:00;101935.50;;;14.89;64.45
71384;BME280;67558;52.166;5.004;2023-02-18T13:18:37;101930.09;;;14.84;64.66
71384;BME280;67558;52.166;5.004;2023-02-18T13:21:08;101939.53;;;14.92;65.00
71384;BME280;67558;52.166;5.004;2023-02-18T13:23:39;101944.41;;;14.95;64.76
71384;BME280;67558;52.166;5.004;2023-02-18T13:26:12;101938.47;;;14.98;64.69
71384;BME280;67558;52.166;5.004;2023-02-18T13:28:51;101947.09;;;15.00;64.52
71384;BME280;67558;52.166;5.004;2023-02-18T13:37:32;101924.72;;;14.94;63.78
71384;BME280;67558;52.166;5.004;2023-02-18T13:40:01;101920.94;;;14.90;63.96
71384;BME280;67558;52.166;5.004;2023-02-18T13:47:40;101945.41;;;14.68;63.70
71384;BME280;67558;52.166;5.004;2023-02-18T13:52:39;101948.63;;;14.65;63.36
71384;BME280;67558;52.166;5.004;2023-02-18T13:55:04;101949.97;;;14.63;63.59
71384;BME280;67558;52.166;5.004;2023-02-18T13:57:30;101941.66;;;14.69;63.70
71384;BME280;67558;52.166;5.004;2023-02-18T14:00:20;101948.94;;;14.74;63.66
71384;BME280;67558;52.166;5.004;2023-02-18T14:02:58;101953.50;;;14.73;63.79
71384;BME280;67558;52.166;5.004;2023-02-18T14:05:39;101955.94;;;14.80;63.79
71384;BME280;67558;52.166;5.004;2023-02-18T14:08:15;101963.78;;;14.87;63.61
71384;BME280;67558;52.166;5.004;2023-02-18T14:11:33;101955.13;;;14.80;63.41
71384;BME280;67558;52.166;5.004;2023-02-18T14:16:24;101969.69;;;14.84;63.27
71384;BME280;67558;52.166;5.004;2023-02-18T14:18:59;101956.75;;;14.86;63.21
71384;BME280;67558;52.166;5.004;2023-02-18T14:21:41;101949.75;;;14.85;63.21
71384;BME280;67558;52.166;5.004;2023-02-18T14:24:10;101949.75;;;14.90;63.22
71384;BME280;67558;52.166;5.004;2023-02-18T14:26:41;101955.69;;;14.92;63.03
71384;BME280;67558;52.166;5.004;2023-02-18T14:31:53;101961.63;;;14.99;62.94
71384;BME280;67558;52.166;5.004;2023-02-18T14:37:00;101943.84;;;14.98;62.75
71384;BME280;67558;52.166;5.004;2023-02-18T14:39:56;101949.53;;;15.02;62.70
71384;BME280;67558;52.166;5.004;2023-02-18T14:45:17;101951.94;;;14.98;62.78
71384;BME280;67558;52.166;5.004;2023-02-18T14:50:45;101952.75;;;14.93;62.89
71384;BME280;67558;52.166;5.004;2023-02-18T14:53:15;101956.78;;;14.96;62.81
71384;BME280;67558;52.166;5.004;2023-02-18T14:55:45;101962.72;;;14.98;62.96
71384;BME280;67558;52.166;5.004;2023-02-18T14:58:35;101961.88;;;14.92;63.29
71384;BME280;67558;52.166;5.004;2023-02-18T15:03:39;101952.19;;;14.91;63.04
71384;BME280;67558;52.166;5.004;2023-02-18T15:06:24;101961.88;;;14.87;63.21
71384;BME280;67558;52.166;5.004;2023-02-18T15:08:50;101961.63;;;14.89;63.06
71384;BME280;67558;52.166;5.004;2023-02-18T15:11:16;101963.78;;;14.87;63.14
71384;BME280;67558;52.166;5.004;2023-02-18T15:13:44;101963.75;;;14.82;63.27
71384;BME280;67558;52.166;5.004;2023-02-18T15:16:30;101953.50;;;14.73;63.17